sensor_id;sensor_type;location;lat;lon;timestamp;temperature;humidity
58951;DHT22;44730;53.158;6.398;2022-09-20T00:01:12;8.20;99.90
58951;DHT22;44730;53.158;6.398;2022-09-20T00:03:44;8.10;99.90
58951;DHT22;44730;53.158;6.398;2022-09-20T00:06:14;8.10;99.90
58951;DHT22;44730;53.158;6.398;2022-09-20T00:08:40;8.00;99.90
58951;DHT22;44730;53.158;6.398;2022-09-20T00:11:09;8.70;99.90
58951;DHT22;44730;53.158;6.398;2022-09-20T00:13:38;8.00;99.90
58951;DHT22;44730;53.158;6.398;2022-09-20T00:16:05;7.90;99.90
58951;DHT22;44730;53.158;6.398;2022-09-20T00:18:31;7.80;99.90
58951;DHT22;44730;53.158;6.398;2022-09-20T00:20:57;7.80;99.90
58951;DHT22;44730;53.158;6.398;2022-09-20T00:23:22;7.80;99.90
58951;DHT22;44730;53.158;6.398;2022-09-20T00:26:00;7.80;99.90
58951;DHT22;44730;53.158;6.398;2022-09-20T00:28:27;7.80;99.90
58951;DHT22;44730;53.158;6.398;2022-09-20T00:30:54;8.20;99.90
58951;DHT22;44730;53.158;6.398;2022-09-20T00:33:21;7.70;99.90
58951;DHT22;44730;53.158;6.398;2022-09-20T00:35:47;7.70;99.90
58951;DHT22;44730;53.158;6.398;2022-09-20T00:38:14;7.70;99.90
58951;DHT22;44730;53.158;6.398;2022-09-20T00:40:44;7.70;99.90
58951;DHT22;44730;53.158;6.398;2022-09-20T00:43:16;7.70;99.90
58951;DHT22;44730;53.158;6.398;2022-09-20T00:45:43;7.70;99.90
58951;DHT22;44730;53.158;6.398;2022-09-20T00:48:21;8.10;99.90
58951;DHT22;44730;53.158;6.398;2022-09-20T00:51:02;7.70;99.90
58951;DHT22;44730;53.158;6.398;2022-09-20T00:53:36;7.70;99.90
58951;DHT22;44730;53.158;6.398;2022-09-20T00:56:06;7.70;99.90
58951;DHT22;44730;53.158;6.398;2022-09-20T00:58:37;7.70;99.90
58951;DHT22;44730;53.158;6.398;2022-09-20T01:01:05;7.70;99.90
58951;DHT22;44730;53.158;6.398;2022-09-20T01:03:33;7.70;99.90
58951;DHT22;44730;53.158;6.398;2022-09-20T01:06:07;7.70;99.90
58951;DHT22;44730;53.158;6.398;2022-09-20T01:08:35;7.80;99.90
58951;DHT22;44730;53.158;6.398;2022-09-20T01:11:02;7.80;99.90
58951;DHT22;44730;53.158;6.398;2022-09-20T01:13:27;7.70;99.90
58951;DHT22;44730;53.158;6.398;2022-09-20T01:15:54;7.80;99.90
58951;DHT22;44730;53.158;6.398;2022-09-20T01:18:24;7.80;99.90
58951;DHT22;44730;53.158;6.398;2022-09-20T01:20:51;7.70;99.90
58951;DHT22;44730;53.158;6.398;2022-09-20T01:31:33;7.60;99.90
58951;DHT22;44730;53.158;6.398;2022-09-20T01:34:17;7.60;99.90
58951;DHT22;44730;53.158;6.398;2022-09-20T01:42:12;7.50;99.90
58951;DHT22;44730;53.158;6.398;2022-09-20T01:45:13;7.50;99.90
58951;DHT22;44730;53.158;6.398;2022-09-20T01:48:07;7.50;99.90
58951;DHT22;44730;53.158;6.398;2022-09-20T01:56:12;7.30;99.90
58951;DHT22;44730;53.158;6.398;2022-09-20T01:59:15;7.30;99.90
58951;DHT22;44730;53.158;6.398;2022-09-20T02:02:12;7.20;99.90
58951;DHT22;44730;53.158;6.398;2022-09-20T02:05:12;7.10;99.90
58951;DHT22;44730;53.158;6.398;2022-09-20T02:21:42;6.90;99.90
58951;DHT22;44730;53.158;6.398;2022-09-20T02:35:29;6.80;99.90
58951;DHT22;44730;53.158;6.398;2022-09-20T02:52:50;6.90;99.90
58951;DHT22;44730;53.158;6.398;2022-09-20T02:55:20;6.90;99.90
58951;DHT22;44730;53.158;6.398;2022-09-20T02:58:00;6.90;99.90
58951;DHT22;44730;53.158;6.398;2022-09-20T03:00:41;7.00;99.90
58951;DHT22;44730;53.158;6.398;2022-09-20T03:09:10;7.30;99.90
58951;DHT22;44730;53.158;6.398;2022-09-20T03:11:59;7.50;99.90
58951;DHT22;44730;53.158;6.398;2022-09-20T03:14:49;7.60;99.90
58951;DHT22;44730;53.158;6.398;2022-09-20T03:25:48;8.00;99.90
58951;DHT22;44730;53.158;6.398;2022-09-20T03:28:33;8.10;99.90
58951;DHT22;44730;53.158;6.398;2022-09-20T03:31:10;8.20;99.90
58951;DHT22;44730;53.158;6.398;2022-09-20T03:53:08;8.60;99.90
58951;DHT22;44730;53.158;6.398;2022-09-20T03:56:06;8.60;99.90
58951;DHT22;44730;53.158;6.398;2022-09-20T04:07:02;8.70;99.90
58951;DHT22;44730;53.158;6.398;2022-09-20T04:18:36;8.90;99.90
58951;DHT22;44730;53.158;6.398;2022-09-20T04:21:18;8.90;99.90
58951;DHT22;44730;53.158;6.398;2022-09-20T04:30:05;8.80;99.90
58951;DHT22;44730;53.158;6.398;2022-09-20T04:38:17;8.70;99.90
58951;DHT22;44730;53.158;6.398;2022-09-20T04:40:50;8.70;99.90
58951;DHT22;44730;53.158;6.398;2022-09-20T04:49:35;8.60;99.90
58951;DHT22;44730;53.158;6.398;2022-09-20T05:07:06;8.60;99.90
58951;DHT22;44730;53.158;6.398;2022-09-20T05:10:15;8.60;99.90
58951;DHT22;44730;53.158;6.398;2022-09-20T05:30:05;8.90;99.90
58951;DHT22;44730;53.158;6.398;2022-09-20T05:32:41;9.00;99.90
58951;DHT22;44730;53.158;6.398;2022-09-20T05:35:33;9.00;99.90
58951;DHT22;44730;53.158;6.398;2022-09-20T05:56:14;9.50;99.90
58951;DHT22;44730;53.158;6.398;2022-09-20T05:59:27;9.50;99.90
58951;DHT22;44730;53.158;6.398;2022-09-20T06:04:58;9.50;99.90
58951;DHT22;44730;53.158;6.398;2022-09-20T06:07:51;9.50;99.90
58951;DHT22;44730;53.158;6.398;2022-09-20T06:16:05;9.70;99.90
58951;DHT22;44730;53.158;6.398;2022-09-20T06:18:45;9.70;99.90
58951;DHT22;44730;53.158;6.398;2022-09-20T06:23:59;9.80;99.90
58951;DHT22;44730;53.158;6.398;2022-09-20T06:26:29;9.80;99.90
58951;DHT22;44730;53.158;6.398;2022-09-20T06:29:01;9.90;99.90
58951;DHT22;44730;53.158;6.398;2022-09-20T06:31:28;9.90;99.90
58951;DHT22;44730;53.158;6.398;2022-09-20T06:34:02;9.90;99.90
58951;DHT22;44730;53.158;6.398;2022-09-20T06:36:36;9.90;99.90
58951;DHT22;44730;53.158;6.398;2022-09-20T06:42:47;10.10;99.90
58951;DHT22;44730;53.158;6.398;2022-09-20T06:45:13;10.20;99.90
58951;DHT22;44730;53.158;6.398;2022-09-20T06:47:39;10.30;99.90
58951;DHT22;44730;53.158;6.398;2022-09-20T06:50:05;10.50;99.90
58951;DHT22;44730;53.158;6.398;2022-09-20T06:52:33;10.60;99.90
58951;DHT22;44730;53.158;6.398;2022-09-20T06:55:00;10.70;99.90
58951;DHT22;44730;53.158;6.398;2022-09-20T06:57:34;10.80;99.90
58951;DHT22;44730;53.158;6.398;2022-09-20T07:00:01;10.90;99.90
58951;DHT22;44730;53.158;6.398;2022-09-20T07:02:27;11.00;99.90
58951;DHT22;44730;53.158;6.398;2022-09-20T07:04:52;11.10;99.90
58951;DHT22;44730;53.158;6.398;2022-09-20T07:07:20;11.20;99.90
58951;DHT22;44730;53.158;6.398;2022-09-20T07:09:46;11.30;99.90
58951;DHT22;44730;53.158;6.398;2022-09-20T07:12:12;11.40;99.90
58951;DHT22;44730;53.158;6.398;2022-09-20T07:14:39;11.50;99.90
58951;DHT22;44730;53.158;6.398;2022-09-20T07:17:06;11.60;99.90
58951;DHT22;44730;53.158;6.398;2022-09-20T07:19:33;11.70;99.90
58951;DHT22;44730;53.158;6.398;2022-09-20T07:22:01;11.70;99.90
58951;DHT22;44730;53.158;6.398;2022-09-20T07:24:27;11.80;99.90
58951;DHT22;44730;53.158;6.398;2022-09-20T07:26:59;11.90;99.90
58951;DHT22;44730;53.158;6.398;2022-09-20T07:29:25;11.90;99.90
58951;DHT22;44730;53.158;6.398;2022-09-20T07:31:51;11.90;99.90
58951;DHT22;44730;53.158;6.398;2022-09-20T07:34:18;11.90;99.90
58951;DHT22;44730;53.158;6.398;2022-09-20T07:36:48;11.90;99.90
58951;DHT22;44730;53.158;6.398;2022-09-20T07:39:20;11.80;99.90
58951;DHT22;44730;53.158;6.398;2022-09-20T07:41:46;11.70;99.90
58951;DHT22;44730;53.158;6.398;2022-09-20T07:44:16;11.90;99.90
58951;DHT22;44730;53.158;6.398;2022-09-20T07:46:54;12.90;99.90
58951;DHT22;44730;53.158;6.398;2022-09-20T07:49:20;13.80;99.90
58951;DHT22;44730;53.158;6.398;2022-09-20T07:51:49;14.70;99.90
58951;DHT22;44730;53.158;6.398;2022-09-20T07:54:16;15.40;99.90
58951;DHT22;44730;53.158;6.398;2022-09-20T07:56:44;16.00;99.90
58951;DHT22;44730;53.158;6.398;2022-09-20T07:59:13;16.50;99.90
58951;DHT22;44730;53.158;6.398;2022-09-20T08:01:41;16.90;99.90
58951;DHT22;44730;53.158;6.398;2022-09-20T08:04:08;17.30;99.90
58951;DHT22;44730;53.158;6.398;2022-09-20T08:06:42;17.70;99.90
58951;DHT22;44730;53.158;6.398;2022-09-20T08:09:10;17.90;99.90
58951;DHT22;44730;53.158;6.398;2022-09-20T08:11:38;18.20;99.90
58951;DHT22;44730;53.158;6.398;2022-09-20T08:14:04;18.60;99.90
58951;DHT22;44730;53.158;6.398;2022-09-20T08:16:31;18.80;99.90
58951;DHT22;44730;53.158;6.398;2022-09-20T08:19:00;19.00;99.90
58951;DHT22;44730;53.158;6.398;2022-09-20T08:21:33;19.30;99.90
58951;DHT22;44730;53.158;6.398;2022-09-20T08:24:00;19.50;99.90
58951;DHT22;44730;53.158;6.398;2022-09-20T08:26:29;19.70;99.90
58951;DHT22;44730;53.158;6.398;2022-09-20T08:29:02;19.80;99.90
58951;DHT22;44730;53.158;6.398;2022-09-20T08:31:30;19.90;99.90
58951;DHT22;44730;53.158;6.398;2022-09-20T08:34:00;19.70;99.90
58951;DHT22;44730;53.158;6.398;2022-09-20T08:36:30;19.90;99.90
58951;DHT22;44730;53.158;6.398;2022-09-20T08:38:59;20.20;99.90
58951;DHT22;44730;53.158;6.398;2022-09-20T08:41:30;20.40;99.90
58951;DHT22;44730;53.158;6.398;2022-09-20T08:44:04;20.50;99.90
58951;DHT22;44730;53.158;6.398;2022-09-20T08:46:45;20.50;99.90
58951;DHT22;44730;53.158;6.398;2022-09-20T08:49:27;20.80;99.90
58951;DHT22;44730;53.158;6.398;2022-09-20T08:51:54;21.20;99.90
58951;DHT22;44730;53.158;6.398;2022-09-20T08:54:24;21.30;99.90
58951;DHT22;44730;53.158;6.398;2022-09-20T08:56:53;21.50;99.90
58951;DHT22;44730;53.158;6.398;2022-09-20T08:59:21;21.20;99.90
58951;DHT22;44730;53.158;6.398;2022-09-20T09:01:49;21.00;99.90
58951;DHT22;44730;53.158;6.398;2022-09-20T09:04:22;20.90;99.90
58951;DHT22;44730;53.158;6.398;2022-09-20T09:06:50;20.50;99.90
58951;DHT22;44730;53.158;6.398;2022-09-20T09:09:21;20.20;99.90
58951;DHT22;44730;53.158;6.398;2022-09-20T09:11:49;19.60;99.90
58951;DHT22;44730;53.158;6.398;2022-09-20T09:14:29;19.10;99.90
58951;DHT22;44730;53.158;6.398;2022-09-20T09:17:27;18.70;99.90
58951;DHT22;44730;53.158;6.398;2022-09-20T09:20:19;18.40;99.90
58951;DHT22;44730;53.158;6.398;2022-09-20T09:23:04;18.10;99.90
58951;DHT22;44730;53.158;6.398;2022-09-20T09:25:52;18.10;99.90
58951;DHT22;44730;53.158;6.398;2022-09-20T09:28:23;18.00;99.90
58951;DHT22;44730;53.158;6.398;2022-09-20T09:30:49;18.00;99.90
58951;DHT22;44730;53.158;6.398;2022-09-20T09:33:23;18.00;99.90
58951;DHT22;44730;53.158;6.398;2022-09-20T09:36:04;18.10;99.90
58951;DHT22;44730;53.158;6.398;2022-09-20T09:41:03;18.20;99.90
58951;DHT22;44730;53.158;6.398;2022-09-20T09:43:33;18.20;99.90
58951;DHT22;44730;53.158;6.398;2022-09-20T09:46:22;18.20;99.90
58951;DHT22;44730;53.158;6.398;2022-09-20T09:49:05;18.20;99.90
58951;DHT22;44730;53.158;6.398;2022-09-20T09:51:32;18.10;99.90
58951;DHT22;44730;53.158;6.398;2022-09-20T09:54:00;18.10;99.90
58951;DHT22;44730;53.158;6.398;2022-09-20T10:04:55;18.20;99.90
58951;DHT22;44730;53.158;6.398;2022-09-20T10:16:40;18.80;99.90
58951;DHT22;44730;53.158;6.398;2022-09-20T10:19:16;18.90;99.90
58951;DHT22;44730;53.158;6.398;2022-09-20T10:22:09;18.90;99.90
58951;DHT22;44730;53.158;6.398;2022-09-20T10:36:56;19.60;99.90
58951;DHT22;44730;53.158;6.398;2022-09-20T10:39:38;20.00;99.90
58951;DHT22;44730;53.158;6.398;2022-09-20T10:42:40;20.60;99.90
58951;DHT22;44730;53.158;6.398;2022-09-20T10:45:41;21.10;99.90
58951;DHT22;44730;53.158;6.398;2022-09-20T10:51:32;20.60;99.90
58951;DHT22;44730;53.158;6.398;2022-09-20T10:56:43;20.40;99.40
58951;DHT22;44730;53.158;6.398;2022-09-20T11:02:39;20.30;95.70
58951;DHT22;44730;53.158;6.398;2022-09-20T11:05:28;20.30;97.60
58951;DHT22;44730;53.158;6.398;2022-09-20T11:10:48;21.50;95.10
58951;DHT22;44730;53.158;6.398;2022-09-20T11:15:50;21.60;95.60
58951;DHT22;44730;53.158;6.398;2022-09-20T11:18:34;21.20;95.10
58951;DHT22;44730;53.158;6.398;2022-09-20T11:21:29;20.60;92.80
58951;DHT22;44730;53.158;6.398;2022-09-20T11:24:01;20.20;94.10
58951;DHT22;44730;53.158;6.398;2022-09-20T11:26:38;19.70;94.30
58951;DHT22;44730;53.158;6.398;2022-09-20T11:29:43;19.50;95.10
58951;DHT22;44730;53.158;6.398;2022-09-20T11:32:14;19.20;93.30
58951;DHT22;44730;53.158;6.398;2022-09-20T11:34:50;19.20;94.30
58951;DHT22;44730;53.158;6.398;2022-09-20T11:37:18;19.20;95.00
58951;DHT22;44730;53.158;6.398;2022-09-20T11:39:53;19.30;95.40
58951;DHT22;44730;53.158;6.398;2022-09-20T11:42:26;19.40;95.00
58951;DHT22;44730;53.158;6.398;2022-09-20T11:44:55;20.50;95.30
58951;DHT22;44730;53.158;6.398;2022-09-20T11:47:32;21.90;91.90
58951;DHT22;44730;53.158;6.398;2022-09-20T11:50:36;23.10;87.80
58951;DHT22;44730;53.158;6.398;2022-09-20T11:56:06;24.50;70.50
58951;DHT22;44730;53.158;6.398;2022-09-20T11:58:59;24.30;72.70
58951;DHT22;44730;53.158;6.398;2022-09-20T12:01:26;25.40;69.10
58951;DHT22;44730;53.158;6.398;2022-09-20T12:03:56;25.90;69.10
58951;DHT22;44730;53.158;6.398;2022-09-20T12:06:33;26.20;65.40
58951;DHT22;44730;53.158;6.398;2022-09-20T12:09:03;25.60;64.30
58951;DHT22;44730;53.158;6.398;2022-09-20T12:11:34;25.10;64.90
58951;DHT22;44730;53.158;6.398;2022-09-20T12:14:06;24.40;66.10
58951;DHT22;44730;53.158;6.398;2022-09-20T12:16:38;23.40;67.50
58951;DHT22;44730;53.158;6.398;2022-09-20T12:19:10;22.60;69.10
58951;DHT22;44730;53.158;6.398;2022-09-20T12:24:26;20.90;68.50
58951;DHT22;44730;53.158;6.398;2022-09-20T12:32:50;22.00;72.80
58951;DHT22;44730;53.158;6.398;2022-09-20T12:41:06;21.80;69.10
58951;DHT22;44730;53.158;6.398;2022-09-20T12:43:35;21.10;71.60
58951;DHT22;44730;53.158;6.398;2022-09-20T12:46:02;20.60;73.00
58951;DHT22;44730;53.158;6.398;2022-09-20T12:48:34;20.60;74.70
58951;DHT22;44730;53.158;6.398;2022-09-20T12:51:02;20.90;74.40
58951;DHT22;44730;53.158;6.398;2022-09-20T12:54:01;21.40;75.00
58951;DHT22;44730;53.158;6.398;2022-09-20T12:56:31;22.60;69.20
58951;DHT22;44730;53.158;6.398;2022-09-20T12:59:02;23.90;70.10
58951;DHT22;44730;53.158;6.398;2022-09-20T13:01:35;25.20;67.10
58951;DHT22;44730;53.158;6.398;2022-09-20T13:07:40;25.70;60.50
58951;DHT22;44730;53.158;6.398;2022-09-20T13:10:19;26.40;59.30
58951;DHT22;44730;53.158;6.398;2022-09-20T13:12:51;27.10;61.00
58951;DHT22;44730;53.158;6.398;2022-09-20T13:15:19;27.60;58.90
58951;DHT22;44730;53.158;6.398;2022-09-20T13:17:48;27.90;59.10
58951;DHT22;44730;53.158;6.398;2022-09-20T13:20:23;28.10;57.50
58951;DHT22;44730;53.158;6.398;2022-09-20T13:22:50;28.60;56.20
58951;DHT22;44730;53.158;6.398;2022-09-20T13:25:18;28.50;53.60
58951;DHT22;44730;53.158;6.398;2022-09-20T13:30:41;29.40;56.60
58951;DHT22;44730;53.158;6.398;2022-09-20T13:33:24;28.30;58.20
58951;DHT22;44730;53.158;6.398;2022-09-20T13:35:53;26.70;60.60
58951;DHT22;44730;53.158;6.398;2022-09-20T13:38:24;26.10;62.60
58951;DHT22;44730;53.158;6.398;2022-09-20T13:40:51;26.30;63.00
58951;DHT22;44730;53.158;6.398;2022-09-20T13:43:41;25.40;62.70
58951;DHT22;44730;53.158;6.398;2022-09-20T13:46:12;24.50;63.70
58951;DHT22;44730;53.158;6.398;2022-09-20T13:48:38;24.30;64.80
58951;DHT22;44730;53.158;6.398;2022-09-20T13:51:23;24.90;64.70
58951;DHT22;44730;53.158;6.398;2022-09-20T13:53:49;25.50;63.80
58951;DHT22;44730;53.158;6.398;2022-09-20T13:58:42;26.50;62.20
58951;DHT22;44730;53.158;6.398;2022-09-20T14:03:51;26.00;58.90
58951;DHT22;44730;53.158;6.398;2022-09-20T14:06:23;25.00;61.60
58951;DHT22;44730;53.158;6.398;2022-09-20T14:08:55;24.20;63.60
58951;DHT22;44730;53.158;6.398;2022-09-20T14:11:25;23.50;65.50
58951;DHT22;44730;53.158;6.398;2022-09-20T14:13:57;23.20;65.90
58951;DHT22;44730;53.158;6.398;2022-09-20T14:16:28;23.70;65.20
58951;DHT22;44730;53.158;6.398;2022-09-20T14:18:56;23.70;65.30
58951;DHT22;44730;53.158;6.398;2022-09-20T14:21:25;23.00;65.70
58951;DHT22;44730;53.158;6.398;2022-09-20T14:23:52;22.40;64.90
58951;DHT22;44730;53.158;6.398;2022-09-20T14:26:27;22.00;67.00
58951;DHT22;44730;53.158;6.398;2022-09-20T14:28:54;21.60;67.40
58951;DHT22;44730;53.158;6.398;2022-09-20T14:31:27;21.10;69.80
58951;DHT22;44730;53.158;6.398;2022-09-20T14:34:00;20.90;72.50
58951;DHT22;44730;53.158;6.398;2022-09-20T14:36:29;20.60;72.10
58951;DHT22;44730;53.158;6.398;2022-09-20T14:39:00;20.30;72.20
58951;DHT22;44730;53.158;6.398;2022-09-20T14:41:39;19.80;73.10
58951;DHT22;44730;53.158;6.398;2022-09-20T14:44:22;19.90;72.60
58951;DHT22;44730;53.158;6.398;2022-09-20T14:46:49;20.30;73.00
58951;DHT22;44730;53.158;6.398;2022-09-20T14:49:31;20.10;74.20
58951;DHT22;44730;53.158;6.398;2022-09-20T14:57:38;19.00;80.30
58951;DHT22;44730;53.158;6.398;2022-09-20T15:00:10;18.60;81.40
58951;DHT22;44730;53.158;6.398;2022-09-20T15:02:36;18.60;81.70
58951;DHT22;44730;53.158;6.398;2022-09-20T15:05:14;18.50;83.10
58951;DHT22;44730;53.158;6.398;2022-09-20T15:07:41;18.60;85.30
58951;DHT22;44730;53.158;6.398;2022-09-20T15:10:23;18.80;85.10
58951;DHT22;44730;53.158;6.398;2022-09-20T15:12:49;18.70;87.70
58951;DHT22;44730;53.158;6.398;2022-09-20T15:15:17;18.80;88.60
58951;DHT22;44730;53.158;6.398;2022-09-20T15:17:44;19.20;87.40
58951;DHT22;44730;53.158;6.398;2022-09-20T15:20:24;20.00;83.70
58951;DHT22;44730;53.158;6.398;2022-09-20T15:22:51;20.90;80.90
58951;DHT22;44730;53.158;6.398;2022-09-20T15:25:20;21.30;80.80
58951;DHT22;44730;53.158;6.398;2022-09-20T15:27:47;21.20;78.00
58951;DHT22;44730;53.158;6.398;2022-09-20T15:30:18;21.00;78.80
58951;DHT22;44730;53.158;6.398;2022-09-20T15:32:46;20.50;80.30
58951;DHT22;44730;53.158;6.398;2022-09-20T15:35:12;19.90;82.20
58951;DHT22;44730;53.158;6.398;2022-09-20T15:37:39;19.40;84.80
58951;DHT22;44730;53.158;6.398;2022-09-20T15:40:06;18.80;86.90
58951;DHT22;44730;53.158;6.398;2022-09-20T15:42:33;18.40;88.10
58951;DHT22;44730;53.158;6.398;2022-09-20T15:45:10;18.20;90.30
58951;DHT22;44730;53.158;6.398;2022-09-20T15:47:38;18.00;90.70
58951;DHT22;44730;53.158;6.398;2022-09-20T15:50:07;17.70;91.50
58951;DHT22;44730;53.158;6.398;2022-09-20T15:52:34;17.60;92.20
58951;DHT22;44730;53.158;6.398;2022-09-20T15:55:02;17.50;93.00
58951;DHT22;44730;53.158;6.398;2022-09-20T15:57:29;17.30;93.40
58951;DHT22;44730;53.158;6.398;2022-09-20T15:59:55;17.10;94.20
58951;DHT22;44730;53.158;6.398;2022-09-20T16:02:23;17.00;94.60
58951;DHT22;44730;53.158;6.398;2022-09-20T16:04:50;16.90;95.70
58951;DHT22;44730;53.158;6.398;2022-09-20T16:07:19;16.70;96.80
58951;DHT22;44730;53.158;6.398;2022-09-20T16:09:52;16.70;97.60
58951;DHT22;44730;53.158;6.398;2022-09-20T16:12:22;16.60;98.90
58951;DHT22;44730;53.158;6.398;2022-09-20T16:14:53;16.60;99.90
58951;DHT22;44730;53.158;6.398;2022-09-20T16:17:18;16.40;99.90
58951;DHT22;44730;53.158;6.398;2022-09-20T16:20:05;16.40;99.90
58951;DHT22;44730;53.158;6.398;2022-09-20T16:22:31;16.40;99.90
58951;DHT22;44730;53.158;6.398;2022-09-20T16:24:58;16.30;99.90
58951;DHT22;44730;53.158;6.398;2022-09-20T16:27:25;16.20;99.90
58951;DHT22;44730;53.158;6.398;2022-09-20T16:29:51;16.10;99.90
58951;DHT22;44730;53.158;6.398;2022-09-20T16:32:17;16.00;99.90
58951;DHT22;44730;53.158;6.398;2022-09-20T16:34:43;16.00;99.90
58951;DHT22;44730;53.158;6.398;2022-09-20T16:37:12;16.00;99.90
58951;DHT22;44730;53.158;6.398;2022-09-20T16:39:42;15.90;99.90
58951;DHT22;44730;53.158;6.398;2022-09-20T16:42:10;15.80;99.90
58951;DHT22;44730;53.158;6.398;2022-09-20T16:44:39;15.80;99.90
58951;DHT22;44730;53.158;6.398;2022-09-20T16:47:07;15.70;99.90
58951;DHT22;44730;53.158;6.398;2022-09-20T16:49:34;15.60;99.90
58951;DHT22;44730;53.158;6.398;2022-09-20T16:52:02;15.60;99.90
58951;DHT22;44730;53.158;6.398;2022-09-20T16:54:28;15.50;99.90
58951;DHT22;44730;53.158;6.398;2022-09-20T16:56:54;15.50;99.90
58951;DHT22;44730;53.158;6.398;2022-09-20T16:59:20;15.50;99.90
58951;DHT22;44730;53.158;6.398;2022-09-20T17:01:47;15.40;99.90
58951;DHT22;44730;53.158;6.398;2022-09-20T17:04:15;15.40;99.90
58951;DHT22;44730;53.158;6.398;2022-09-20T17:06:43;15.30;99.90
58951;DHT22;44730;53.158;6.398;2022-09-20T17:09:10;15.20;99.90
58951;DHT22;44730;53.158;6.398;2022-09-20T17:11:47;15.20;99.90
58951;DHT22;44730;53.158;6.398;2022-09-20T17:14:18;15.10;99.90
58951;DHT22;44730;53.158;6.398;2022-09-20T17:16:45;15.00;99.90
58951;DHT22;44730;53.158;6.398;2022-09-20T17:19:18;15.00;99.90
58951;DHT22;44730;53.158;6.398;2022-09-20T17:21:46;14.80;99.90
58951;DHT22;44730;53.158;6.398;2022-09-20T17:24:19;14.80;99.90
58951;DHT22;44730;53.158;6.398;2022-09-20T17:26:46;14.70;99.90
58951;DHT22;44730;53.158;6.398;2022-09-20T17:29:15;14.70;99.90
58951;DHT22;44730;53.158;6.398;2022-09-20T17:31:49;14.60;99.90
58951;DHT22;44730;53.158;6.398;2022-09-20T17:34:16;14.50;99.90
58951;DHT22;44730;53.158;6.398;2022-09-20T17:36:46;14.40;99.90
58951;DHT22;44730;53.158;6.398;2022-09-20T17:39:13;14.40;99.90
58951;DHT22;44730;53.158;6.398;2022-09-20T17:41:41;14.30;99.90
58951;DHT22;44730;53.158;6.398;2022-09-20T17:44:07;14.20;99.90
58951;DHT22;44730;53.158;6.398;2022-09-20T17:46:37;14.10;99.90
58951;DHT22;44730;53.158;6.398;2022-09-20T17:49:05;14.00;99.90
58951;DHT22;44730;53.158;6.398;2022-09-20T17:51:37;13.90;99.90
58951;DHT22;44730;53.158;6.398;2022-09-20T17:54:03;13.80;99.90
58951;DHT22;44730;53.158;6.398;2022-09-20T17:56:30;13.70;99.90
58951;DHT22;44730;53.158;6.398;2022-09-20T17:59:01;13.70;99.90
58951;DHT22;44730;53.158;6.398;2022-09-20T18:01:28;13.50;99.90
58951;DHT22;44730;53.158;6.398;2022-09-20T18:03:56;13.40;99.90
58951;DHT22;44730;53.158;6.398;2022-09-20T18:06:24;13.40;99.90
58951;DHT22;44730;53.158;6.398;2022-09-20T18:08:56;13.20;99.90
58951;DHT22;44730;53.158;6.398;2022-09-20T18:13:54;13.00;99.90
58951;DHT22;44730;53.158;6.398;2022-09-20T18:16:20;12.90;99.90
58951;DHT22;44730;53.158;6.398;2022-09-20T18:18:46;12.80;99.90
58951;DHT22;44730;53.158;6.398;2022-09-20T18:21:17;12.70;99.90
58951;DHT22;44730;53.158;6.398;2022-09-20T18:23:44;12.60;99.90
58951;DHT22;44730;53.158;6.398;2022-09-20T18:26:21;12.50;99.90
58951;DHT22;44730;53.158;6.398;2022-09-20T18:28:53;12.40;99.90
58951;DHT22;44730;53.158;6.398;2022-09-20T18:31:20;12.30;99.90
58951;DHT22;44730;53.158;6.398;2022-09-20T18:33:46;12.20;99.90
58951;DHT22;44730;53.158;6.398;2022-09-20T18:36:12;12.10;99.90
58951;DHT22;44730;53.158;6.398;2022-09-20T18:38:43;12.00;99.90
58951;DHT22;44730;53.158;6.398;2022-09-20T18:41:10;11.90;99.90
58951;DHT22;44730;53.158;6.398;2022-09-20T18:43:39;11.80;99.90
58951;DHT22;44730;53.158;6.398;2022-09-20T18:46:10;11.80;99.90
58951;DHT22;44730;53.158;6.398;2022-09-20T18:48:37;11.70;99.90
58951;DHT22;44730;53.158;6.398;2022-09-20T18:51:07;11.60;99.90
58951;DHT22;44730;53.158;6.398;2022-09-20T18:53:36;11.50;99.90
58951;DHT22;44730;53.158;6.398;2022-09-20T18:56:19;11.40;99.90
58951;DHT22;44730;53.158;6.398;2022-09-20T18:58:46;11.30;99.90
58951;DHT22;44730;53.158;6.398;2022-09-20T19:09:30;11.10;99.90
58951;DHT22;44730;53.158;6.398;2022-09-20T19:12:03;11.00;99.90
58951;DHT22;44730;53.158;6.398;2022-09-20T19:14:42;11.00;99.90
58951;DHT22;44730;53.158;6.398;2022-09-20T19:17:10;10.90;99.90
58951;DHT22;44730;53.158;6.398;2022-09-20T19:19:58;10.90;99.90
58951;DHT22;44730;53.158;6.398;2022-09-20T19:25:41;10.80;99.90
58951;DHT22;44730;53.158;6.398;2022-09-20T19:28:13;10.80;99.90
58951;DHT22;44730;53.158;6.398;2022-09-20T19:30:40;10.70;99.90
58951;DHT22;44730;53.158;6.398;2022-09-20T19:33:17;10.60;99.90
58951;DHT22;44730;53.158;6.398;2022-09-20T19:35:50;10.60;99.90
58951;DHT22;44730;53.158;6.398;2022-09-20T19:38:28;10.50;99.90
58951;DHT22;44730;53.158;6.398;2022-09-20T19:46:39;10.40;99.90
58951;DHT22;44730;53.158;6.398;2022-09-20T19:49:30;10.30;99.90
58951;DHT22;44730;53.158;6.398;2022-09-20T19:52:04;10.30;99.90
58951;DHT22;44730;53.158;6.398;2022-09-20T19:54:31;10.20;99.90
58951;DHT22;44730;53.158;6.398;2022-09-20T19:56:57;10.20;99.90
58951;DHT22;44730;53.158;6.398;2022-09-20T19:59:26;10.20;99.90
58951;DHT22;44730;53.158;6.398;2022-09-20T20:01:53;10.10;99.90
58951;DHT22;44730;53.158;6.398;2022-09-20T20:04:20;10.10;99.90
58951;DHT22;44730;53.158;6.398;2022-09-20T20:09:44;10.00;99.90
58951;DHT22;44730;53.158;6.398;2022-09-20T20:15:37;9.90;99.90
58951;DHT22;44730;53.158;6.398;2022-09-20T20:21:14;9.80;99.90
58951;DHT22;44730;53.158;6.398;2022-09-20T20:26:24;9.70;99.90
58951;DHT22;44730;53.158;6.398;2022-09-20T20:28:50;9.70;99.90
58951;DHT22;44730;53.158;6.398;2022-09-20T20:31:18;9.60;99.90
58951;DHT22;44730;53.158;6.398;2022-09-20T20:33:44;9.60;99.90
58951;DHT22;44730;53.158;6.398;2022-09-20T20:36:10;9.60;99.90
58951;DHT22;44730;53.158;6.398;2022-09-20T20:38:39;9.60;99.90
58951;DHT22;44730;53.158;6.398;2022-09-20T20:41:07;9.50;99.90
58951;DHT22;44730;53.158;6.398;2022-09-20T20:43:36;9.50;99.90
58951;DHT22;44730;53.158;6.398;2022-09-20T20:46:04;9.40;99.90
58951;DHT22;44730;53.158;6.398;2022-09-20T20:48:30;9.40;99.90
58951;DHT22;44730;53.158;6.398;2022-09-20T20:51:04;9.40;99.90
58951;DHT22;44730;53.158;6.398;2022-09-20T20:53:34;9.40;99.90
58951;DHT22;44730;53.158;6.398;2022-09-20T20:56:06;9.30;99.90
58951;DHT22;44730;53.158;6.398;2022-09-20T20:58:34;9.30;99.90
58951;DHT22;44730;53.158;6.398;2022-09-20T21:01:26;9.20;99.90
58951;DHT22;44730;53.158;6.398;2022-09-20T21:03:53;9.20;99.90
58951;DHT22;44730;53.158;6.398;2022-09-20T21:06:24;9.10;99.90
58951;DHT22;44730;53.158;6.398;2022-09-20T21:08:50;9.10;99.90
58951;DHT22;44730;53.158;6.398;2022-09-20T21:11:27;9.10;99.90
58951;DHT22;44730;53.158;6.398;2022-09-20T21:13:55;9.00;99.90